• Join FlightAware (Why Join?)
  • Login
  • US Flag 
01:02PM EST


 

Airport Tracker/Info


-or-


 

Live Flight TrackerFlight Track Log ✈ AAY894 ✈ 26-Jan-2014 ✈ KPIE - KIAG

Flight Track Log - Related Links

Times and Time Zones

All times are in EST time to prevent confusion due to time zone crossing. See the AAY894 flight status page for this flight to view local times or setup timezone preferences in your user account.

Time Position Orientation Groundspeed Altitude Reporting Facility
EST Latitude Longitude Course Direction KTS MPH feet Rate Location/Type
08:32AM 27.9333 -82.7000 360° North 168 193 800  Level Tampa TRACON
08:32AM 27.9500 -82.7000 360° North 174 200 1,400 1,750 Climbing Tampa TRACON
08:33AM 28.0333 -82.6667 19° North 284 327 3,600 2,364 Climbing Tampa TRACON
08:34AM 28.1167 -82.6667 360° North 282 325 6,600 2,369 Climbing Tampa TRACON
08:36AM 28.2811 -82.6261 12° North 298 343 11,300 2,000 Climbing Jacksonville Center
08:37AM 28.3811 -82.6117 North 329 379 12,900 1,800 Climbing Jacksonville Center
08:38AM 28.4897 -82.6114 360° North 363 418 14,900 2,100 Climbing Jacksonville Center
08:39AM 28.6086 -82.6042 North 396 456 17,100 1,850 Climbing Jacksonville Center
08:40AM 28.7256 -82.6039 360° North 411 473 18,600 1,750 Climbing Jacksonville Center
08:41AM 28.8508 -82.5939 North 430 495 20,600 1,900 Climbing Jacksonville Center
08:42AM 28.9739 -82.5958 359° North 436 502 22,400 1,550 Climbing Jacksonville Center
08:43AM 29.1075 -82.5883 North 453 521 23,700 1,700 Climbing Jacksonville Center
08:44AM 29.2347 -82.5881 360° North 458 527 25,800 1,750 Climbing Jacksonville Center
08:45AM 29.3622 -82.5806 North 458 527 27,200 1,400 Climbing Jacksonville Center
08:46AM 29.4875 -82.5800 360° North 458 527 28,600 1,250 Climbing Jacksonville Center
08:47AM 29.6169 -82.5725 North 458 527 29,700 1,100 Climbing Jacksonville Center
08:48AM 29.7608 -82.5719 360° North 458 527 30,800 1,150 Climbing Jacksonville Center
08:49AM 29.8883 -82.5667 North 458 527 32,000 1,000 Climbing Jacksonville Center
08:50AM 30.0178 -82.5664 360° North 458 527 32,800 500 Climbing Jacksonville Center
08:51AM 30.1325 -82.5611 North 458 527 33,000 50 Climbing Jacksonville Center
08:52AM 30.2578 -82.5631 359° North 452 520 32,900 -50 Descending Jacksonville Center
08:53AM 30.3872 -82.5556 North 458 527 32,900  Level Jacksonville Center
08:54AM 30.5144 -82.5575 359° North 458 527 32,900  Level Jacksonville Center
08:55AM 30.6419 -82.5472 North 458 527 32,900 50 Level Jacksonville Center
08:56AM 30.7692 -82.5469 360° North 458 527 33,000  Climbing Jacksonville Center
08:57AM 30.8986 -82.5342 North 458 527 32,900 -50 Descending Jacksonville Center
08:58AM 31.0197 -82.5361 359° North 452 520 32,900  Level Jacksonville Center
08:59AM 31.1492 -82.5236 North 452 520 32,900  Level Jacksonville Center
09:00AM 31.2725 -82.5256 359° North 452 520 32,900 50 Level Jacksonville Center
09:01AM 31.3997 -82.5106 North 446 513 33,000 50 Climbing Jacksonville Center
09:02AM 31.5292 -82.5075 North 446 513 33,000  Level Jacksonville Center
09:04AM 31.7825 -82.4703 North 462 532 33,000  Level Atlanta Center
09:05AM 31.9097 -82.4511 North 462 532 33,000  Level Atlanta Center
09:06AM 32.0344 -82.4292 North 462 532 33,000  Level Atlanta Center
09:07AM 32.1594 -82.4050 North 462 532 33,000  Level Atlanta Center
09:08AM 32.2819 -82.3633 16° North 457 526 33,000  Level Atlanta Center
09:09AM 32.4069 -82.3314 12° North 457 526 33,000  Level Atlanta Center
09:10AM 32.5314 -82.2872 17° North 457 526 33,000  Level Atlanta Center
09:11AM 32.6561 -82.2525 13° North 452 520 33,000  Level Atlanta Center
09:12AM 32.7808 -82.2106 16° North 452 520 33,000  Level Atlanta Center
09:13AM 32.9056 -82.1808 11° North 452 520 33,000  Level Atlanta Center
09:14AM 33.0281 -82.1336 18° North 452 520 33,000  Level Atlanta Center
09:15AM 33.1528 -82.1033 11° North 452 520 33,000  Level Atlanta Center
09:16AM 33.2753 -82.0611 16° North 452 520 33,000  Level Atlanta Center
09:17AM 33.4000 -82.0258 13° North 452 520 33,000  Level Atlanta Center
09:18AM 33.5369 -81.9778 16° North 452 520 33,000  Level Atlanta Center
09:19AM 33.6617 -81.9472 12° North 452 520 33,000  Level Atlanta Center
09:20AM 33.7842 -81.9044 16° North 452 520 33,000  Level Atlanta Center
09:21AM 33.9086 -81.8661 14° North 452 520 33,000  Level Atlanta Center
09:22AM 34.0331 -81.8253 15° North 452 520 33,000  Level Atlanta Center
09:23AM 34.1578 -81.7894 13° North 452 520 33,000  Level Atlanta Center
09:24AM 34.2842 -81.7483 15° North 452 520 33,000  Level Atlanta Center
09:25AM 34.4067 -81.7100 14° North 452 520 33,000  Level Atlanta Center
09:26AM 34.5311 -81.6711 14° North 452 520 33,000  Level Atlanta Center
09:27AM 34.6431 -81.6353 15° North 452 520 33,000  Level Atlanta Center
09:28AM 34.7675 -81.5961 14° North 452 520 33,000  Level Atlanta Center
09:29AM 34.8897 -81.5547 16° North 452 520 33,000  Level Atlanta Center
09:30AM 35.0144 -81.5206 13° North 452 520 33,000  Level Atlanta Center
09:31AM 35.1386 -81.4761 16° North 452 520 33,000  Level Atlanta Center
09:32AM 35.2608 -81.4367 15° North 452 520 33,000  Level Atlanta Center
09:33AM 35.3831 -81.3947 16° North 452 520 33,000  Level Atlanta Center
09:34AM 35.5056 -81.3600 13° North 452 520 33,000  Level Atlanta Center
09:35AM 35.6294 -81.3100 18° North 452 520 33,000  Level Atlanta Center
09:36AM 35.7706 -81.2694 13° North 457 526 33,000  Level Atlanta Center
09:37AM 35.8947 -81.2242 16° North 457 526 33,000  Level Atlanta Center
09:38AM 36.0169 -81.1892 13° North 457 526 33,000  Level Atlanta Center
09:39AM 36.1408 -81.1411 17° North 451 519 33,000  Level Atlanta Center
09:40AM 36.2611 -81.1058 13° North 451 519 33,000  Level Atlanta Center
09:41AM 36.3850 -81.0600 17° North 451 519 33,000  Level Atlanta Center
09:42AM 36.5072 -81.0244 13° North 451 519 33,000  Level Atlanta Center
09:43AM 36.6311 -80.9758 17° North 451 519 33,000  Level Atlanta Center
09:44AM 36.7533 -80.9400 13° North 451 519 33,000  Level Atlanta Center
09:47AM 37.0186 -80.8572 14° North 443 510 33,000  Level Washington Center
09:48AM 37.1417 -80.8108 17° North 443 510 33,000  Level Washington Center
09:49AM 37.2644 -80.7722 14° North 448 516 33,000  Level Washington Center
09:50AM 37.3894 -80.7283 16° North 448 516 33,000  Level Washington Center
09:51AM 37.5144 -80.6844 16° North 455 524 33,000  Level Washington Center
09:52AM 37.6542 -80.6389 14° North 464 534 33,000  Level Washington Center
09:53AM 37.7747 -80.5944 16° North 464 534 33,000  Level Washington Center
09:54AM 37.8975 -80.5550 14° North 459 528 33,000  Level Washington Center
09:55AM 38.0203 -80.5106 16° North 459 528 33,000  Level Washington Center
09:56AM 38.1428 -80.4711 14° North 459 528 33,000  Level Washington Center
09:57AM 38.2658 -80.4208 18° North 459 528 33,000  Level Washington Center
09:58AM 38.3906 -80.3814 14° North 459 528 33,000  Level Washington Center
09:59AM 38.4986 -80.3378 18° North 458 527 33,000  Level Washington Center
10:00AM 38.6231 -80.3033 12° North 451 519 33,000  Level Washington Center
10:02AM 38.8506 -80.2086 18° North 456 525 33,000  Level Cleveland Center
10:03AM 38.9956 -80.1564 16° North 451 519 33,000  Level Cleveland Center
10:04AM 39.1147 -80.1139 15° North 448 516 33,000  Level Cleveland Center
10:05AM 39.2339 -80.0722 15° North 445 512 33,000  Level Cleveland Center
10:06AM 39.3544 -80.0244 17° North 452 520 33,000  Level Cleveland Center
10:07AM 39.4742 -79.9872 13° North 447 514 33,000  Level Cleveland Center
10:08AM 39.5956 -79.9369 18° North 452 520 33,000  Level Cleveland Center
10:09AM 39.7158 -79.8983 14° North 452 520 33,000  Level Cleveland Center
10:10AM 39.8367 -79.8472 18° North 456 525 33,000  Level Cleveland Center
10:11AM 39.9572 -79.8086 14° North 452 520 33,000  Level Cleveland Center
10:12AM 40.1014 -79.7489 18° North 454 522 33,000 -639 Level Cleveland Center
10:13AM 40.2225 -79.7097 14° North 456 525 31,700 -984 Descending Cleveland Center
10:14AM 40.3436 -79.6589 18° North 458 527 31,000 -341 Descending Cleveland Center
10:15AM 40.4617 -79.6181 15° North 441 507 31,000  Level Cleveland Center
10:16AM 40.5822 -79.5714 16° North 454 522 31,000  Level Cleveland Center
10:17AM 40.7031 -79.5217 17° North 457 526 31,000  Level Cleveland Center
10:18AM 40.8231 -79.4817 14° North 447 514 31,000  Level Cleveland Center
10:19AM 40.9417 -79.4292 18° North 451 519 31,000 -49 Level Cleveland Center
10:20AM 41.0869 -79.3808 14° North 447 514 30,900 -732 Descending Cleveland Center
10:21AM 41.2069 -79.3278 18° North 455 524 29,500 -1,426 Descending Cleveland Center
10:22AM 41.3297 -79.2886 13° North 454 522 28,000 -738 Descending Cleveland Center
10:23AM 41.4519 -79.2336 19° North 458 527 28,000 -146 Level Cleveland Center
10:24AM 41.5758 -79.1861 16° North 464 534 27,700 -1,073 Descending Cleveland Center
10:25AM 41.7103 -79.1364 15° North 455 524 25,800 -1,918 Descending Cleveland Center
10:26AM 41.8289 -79.0956 14° North 441 507 23,800 -1,561 Descending Cleveland Center
10:27AM 41.9300 -79.0458 20° North 435 501 22,600 -1,415 Descending Cleveland Center
10:28AM 42.0392 -79.0097 14° North 408 470 20,900 -1,918 Descending Cleveland Center
10:29AM 42.1628 -78.9528 19° North 394 453 18,700 -2,244 Descending Cleveland Center
10:30AM 42.2664 -78.9181 14° North 389 448 16,300 -1,951 Descending Cleveland Center
10:31AM 42.3578 -78.8786 18° North 382 440 14,700 -1,721 Descending Cleveland Center
10:32AM 42.4522 -78.8389 17° North 360 414 12,800 -1,820 Descending Cleveland Center
10:33AM 42.5461 -78.8017 16° North 350 403 11,000 -1,366 Descending Cleveland Center
10:34AM 42.6458 -78.7628 16° North 323 372 10,000 -1,366 Descending Cleveland Center
10:35AM 42.7267 -78.7303 16° North 292 336 8,200 -1,820 Descending Cleveland Center
10:36AM 42.7986 -78.6967 19° North 288 331 6,300 -2,016 Descending Cleveland Center
10:37AM 42.8733 -78.6692 15° North 272 313 4,100 -1,438 Descending Cleveland Center
10:38AM 42.9167 -78.6833 347° North 237 273 4,000 -59 Descending Buffalo TRACON
10:39AM 42.9667 -78.7167 334° Northwest 198 228 4,000  Level Buffalo TRACON
10:40AM 43.0167 -78.7500 334° Northwest 207 238 4,000 -200 Level Buffalo TRACON
10:41AM 43.0833 -78.7833 340° North 214 246 3,600 -800 Descending Buffalo TRACON
10:42AM 43.1167 -78.8333 312° West 154 177 2,400 -1,105 Descending Buffalo TRACON
10:43AM 43.1167 -78.8667 270° West 118 136 1,500 -842 Descending Buffalo TRACON
10:44AM 43.1167 -78.9167 270° West 124 143 800 -700 Descending Buffalo TRACON
10:46AM 43.1000 -78.9333 312° West  Level FlightAware Approximate